Terminal Aerodrome Forecast
Issued by NWS Jackson, MS

Home | Current Version | Previous Version | Text Only | Print | Product List | Glossary On
Versions: 1 2 3 4 5 6 7 8 9 10 11 12 13 14 15 16 17 18 19 20
933
FTUS44 KMEG 291740
TAFTUP
TAF
KTUP 291740Z 2918/3018 25006KT P6SM BKN035
     FM292000 27007KT P6SM VCTS SCT045CB BKN050
     FM300100 22003KT P6SM SCT250
      TEMPO 3009/3012 5SM BR FEW005
     FM301500 26005KT P6SM SCT035 BKN250=

USA.gov is the U.S. government's official web portal to all federal, state and local government web resources and services.